sensor_id;sensor_type;location;lat;lon;timestamp;P1;durP1;ratioP1;P2;durP2;ratioP2
10643;SDS011;5370;50.132;8.626;2022-07-29T00:00:41;3.17;;;1.23;;
10643;SDS011;5370;50.132;8.626;2022-07-29T00:03:09;1.70;;;1.30;;
10643;SDS011;5370;50.132;8.626;2022-07-29T00:05:38;4.47;;;1.60;;
10643;SDS011;5370;50.132;8.626;2022-07-29T00:08:07;3.20;;;1.83;;
10643;SDS011;5370;50.132;8.626;2022-07-29T00:10:33;1.92;;;1.42;;
10643;SDS011;5370;50.132;8.626;2022-07-29T00:12:59;6.88;;;1.55;;
10643;SDS011;5370;50.132;8.626;2022-07-29T00:15:25;7.20;;;1.23;;
10643;SDS011;5370;50.132;8.626;2022-07-29T00:17:51;5.07;;;1.30;;
10643;SDS011;5370;50.132;8.626;2022-07-29T00:20:17;6.18;;;1.33;;
10643;SDS011;5370;50.132;8.626;2022-07-29T00:22:42;10.88;;;1.40;;
10643;SDS011;5370;50.132;8.626;2022-07-29T00:25:08;2.83;;;1.52;;
10643;SDS011;5370;50.132;8.626;2022-07-29T00:27:35;6.63;;;1.55;;
10643;SDS011;5370;50.132;8.626;2022-07-29T00:30:01;6.35;;;1.10;;
10643;SDS011;5370;50.132;8.626;2022-07-29T00:32:27;2.80;;;1.40;;
10643;SDS011;5370;50.132;8.626;2022-07-29T00:34:53;4.00;;;1.40;;
10643;SDS011;5370;50.132;8.626;2022-07-29T00:37:37;4.40;;;1.77;;
10643;SDS011;5370;50.132;8.626;2022-07-29T00:40:03;2.65;;;1.30;;
10643;SDS011;5370;50.132;8.626;2022-07-29T00:42:29;4.00;;;1.75;;
10643;SDS011;5370;50.132;8.626;2022-07-29T00:44:54;4.57;;;2.20;;
10643;SDS011;5370;50.132;8.626;2022-07-29T00:47:20;4.80;;;1.40;;
10643;SDS011;5370;50.132;8.626;2022-07-29T00:49:45;3.42;;;1.38;;
10643;SDS011;5370;50.132;8.626;2022-07-29T00:52:11;6.95;;;1.80;;
10643;SDS011;5370;50.132;8.626;2022-07-29T00:54:38;3.15;;;1.70;;
10643;SDS011;5370;50.132;8.626;2022-07-29T00:57:06;1.85;;;1.17;;
10643;SDS011;5370;50.132;8.626;2022-07-29T00:59:32;7.65;;;1.88;;
10643;SDS011;5370;50.132;8.626;2022-07-29T01:01:58;6.30;;;1.38;;
10643;SDS011;5370;50.132;8.626;2022-07-29T01:04:24;3.22;;;1.40;;
10643;SDS011;5370;50.132;8.626;2022-07-29T01:06:50;4.45;;;1.85;;
10643;SDS011;5370;50.132;8.626;2022-07-29T01:09:16;6.13;;;1.65;;
10643;SDS011;5370;50.132;8.626;2022-07-29T01:11:44;3.33;;;1.42;;
10643;SDS011;5370;50.132;8.626;2022-07-29T01:14:11;5.72;;;1.95;;
10643;SDS011;5370;50.132;8.626;2022-07-29T01:16:39;2.78;;;1.50;;
10643;SDS011;5370;50.132;8.626;2022-07-29T01:22:27;5.45;;;1.80;;
10643;SDS011;5370;50.132;8.626;2022-07-29T01:30:12;3.60;;;1.60;;
10643;SDS011;5370;50.132;8.626;2022-07-29T01:32:38;4.25;;;1.52;;
10643;SDS011;5370;50.132;8.626;2022-07-29T01:35:10;5.43;;;2.13;;
10643;SDS011;5370;50.132;8.626;2022-07-29T01:40:57;8.20;;;2.03;;
10643;SDS011;5370;50.132;8.626;2022-07-29T01:43:11;2.35;;;1.60;;
10643;SDS011;5370;50.132;8.626;2022-07-29T01:45:41;20.10;;;1.92;;
10643;SDS011;5370;50.132;8.626;2022-07-29T01:48:13;3.80;;;1.98;;
10643;SDS011;5370;50.132;8.626;2022-07-29T01:50:45;2.92;;;1.67;;
10643;SDS011;5370;50.132;8.626;2022-07-29T01:53:21;5.72;;;1.63;;
10643;SDS011;5370;50.132;8.626;2022-07-29T01:56:07;6.18;;;1.73;;
10643;SDS011;5370;50.132;8.626;2022-07-29T01:58:35;5.50;;;1.73;;
10643;SDS011;5370;50.132;8.626;2022-07-29T02:01:05;3.88;;;1.65;;
10643;SDS011;5370;50.132;8.626;2022-07-29T02:03:33;5.15;;;1.58;;
10643;SDS011;5370;50.132;8.626;2022-07-29T02:06:01;3.97;;;1.67;;
10643;SDS011;5370;50.132;8.626;2022-07-29T02:08:29;5.82;;;1.90;;
10643;SDS011;5370;50.132;8.626;2022-07-29T02:10:57;6.95;;;1.73;;
10643;SDS011;5370;50.132;8.626;2022-07-29T02:13:25;5.53;;;1.70;;
10643;SDS011;5370;50.132;8.626;2022-07-29T02:15:53;3.42;;;1.92;;
10643;SDS011;5370;50.132;8.626;2022-07-29T02:18:22;3.72;;;1.98;;
10643;SDS011;5370;50.132;8.626;2022-07-29T02:20:51;4.45;;;1.88;;
10643;SDS011;5370;50.132;8.626;2022-07-29T02:23:23;6.93;;;2.00;;
10643;SDS011;5370;50.132;8.626;2022-07-29T02:25:51;2.88;;;1.70;;
10643;SDS011;5370;50.132;8.626;2022-07-29T02:28:20;6.15;;;2.00;;
10643;SDS011;5370;50.132;8.626;2022-07-29T02:30:49;4.13;;;1.55;;
10643;SDS011;5370;50.132;8.626;2022-07-29T02:33:17;2.45;;;1.30;;
10643;SDS011;5370;50.132;8.626;2022-07-29T02:35:45;4.50;;;2.00;;
10643;SDS011;5370;50.132;8.626;2022-07-29T02:38:13;3.00;;;1.83;;
10643;SDS011;5370;50.132;8.626;2022-07-29T02:41:08;9.20;;;1.77;;
10643;SDS011;5370;50.132;8.626;2022-07-29T02:43:36;3.35;;;1.80;;
10643;SDS011;5370;50.132;8.626;2022-07-29T02:46:04;4.82;;;1.88;;
10643;SDS011;5370;50.132;8.626;2022-07-29T02:48:37;7.55;;;2.63;;
10643;SDS011;5370;50.132;8.626;2022-07-29T02:51:12;4.60;;;2.22;;
10643;SDS011;5370;50.132;8.626;2022-07-29T02:53:44;6.43;;;2.47;;
10643;SDS011;5370;50.132;8.626;2022-07-29T02:56:16;3.55;;;1.90;;
10643;SDS011;5370;50.132;8.626;2022-07-29T02:58:47;2.78;;;1.88;;
10643;SDS011;5370;50.132;8.626;2022-07-29T03:01:22;5.07;;;1.85;;
10643;SDS011;5370;50.132;8.626;2022-07-29T03:03:49;6.40;;;2.10;;
10643;SDS011;5370;50.132;8.626;2022-07-29T03:06:17;2.45;;;1.60;;
10643;SDS011;5370;50.132;8.626;2022-07-29T03:08:45;2.72;;;1.70;;
10643;SDS011;5370;50.132;8.626;2022-07-29T03:11:12;6.28;;;2.22;;
10643;SDS011;5370;50.132;8.626;2022-07-29T03:13:39;3.97;;;2.15;;
10643;SDS011;5370;50.132;8.626;2022-07-29T03:16:05;4.00;;;2.20;;
10643;SDS011;5370;50.132;8.626;2022-07-29T03:18:33;3.88;;;1.90;;
10643;SDS011;5370;50.132;8.626;2022-07-29T03:21:00;4.32;;;2.40;;
10643;SDS011;5370;50.132;8.626;2022-07-29T03:23:25;3.58;;;2.22;;
10643;SDS011;5370;50.132;8.626;2022-07-29T03:25:53;4.50;;;2.20;;
10643;SDS011;5370;50.132;8.626;2022-07-29T03:28:19;4.80;;;2.58;;
10643;SDS011;5370;50.132;8.626;2022-07-29T03:30:45;5.55;;;2.20;;
10643;SDS011;5370;50.132;8.626;2022-07-29T03:33:11;3.40;;;2.03;;
10643;SDS011;5370;50.132;8.626;2022-07-29T03:35:36;3.80;;;2.10;;
10643;SDS011;5370;50.132;8.626;2022-07-29T03:38:02;3.08;;;1.90;;
10643;SDS011;5370;50.132;8.626;2022-07-29T03:40:32;5.10;;;2.35;;
10643;SDS011;5370;50.132;8.626;2022-07-29T03:43:06;3.03;;;2.00;;
10643;SDS011;5370;50.132;8.626;2022-07-29T03:45:33;5.75;;;1.98;;
10643;SDS011;5370;50.132;8.626;2022-07-29T03:48:01;5.38;;;2.00;;
10643;SDS011;5370;50.132;8.626;2022-07-29T03:50:32;5.30;;;1.73;;
10643;SDS011;5370;50.132;8.626;2022-07-29T03:52:58;4.05;;;1.88;;
10643;SDS011;5370;50.132;8.626;2022-07-29T03:55:24;4.07;;;1.85;;
10643;SDS011;5370;50.132;8.626;2022-07-29T03:57:51;2.85;;;2.15;;
10643;SDS011;5370;50.132;8.626;2022-07-29T04:00:17;6.50;;;2.42;;
10643;SDS011;5370;50.132;8.626;2022-07-29T04:02:44;4.60;;;1.80;;
10643;SDS011;5370;50.132;8.626;2022-07-29T04:05:13;5.15;;;2.00;;
10643;SDS011;5370;50.132;8.626;2022-07-29T04:07:43;2.90;;;2.17;;
10643;SDS011;5370;50.132;8.626;2022-07-29T04:10:09;3.60;;;2.38;;
10643;SDS011;5370;50.132;8.626;2022-07-29T04:12:35;4.72;;;2.88;;
10643;SDS011;5370;50.132;8.626;2022-07-29T04:15:01;2.83;;;2.00;;
10643;SDS011;5370;50.132;8.626;2022-07-29T04:17:28;5.72;;;2.00;;
10643;SDS011;5370;50.132;8.626;2022-07-29T04:19:53;6.45;;;2.03;;
10643;SDS011;5370;50.132;8.626;2022-07-29T04:22:19;5.90;;;2.25;;
10643;SDS011;5370;50.132;8.626;2022-07-29T04:24:44;6.70;;;1.85;;
10643;SDS011;5370;50.132;8.626;2022-07-29T04:27:10;6.03;;;2.38;;
10643;SDS011;5370;50.132;8.626;2022-07-29T04:29:36;3.42;;;1.80;;
10643;SDS011;5370;50.132;8.626;2022-07-29T04:32:01;9.35;;;2.15;;
10643;SDS011;5370;50.132;8.626;2022-07-29T04:34:27;3.35;;;1.70;;
10643;SDS011;5370;50.132;8.626;2022-07-29T04:36:52;6.75;;;2.28;;
10643;SDS011;5370;50.132;8.626;2022-07-29T04:39:18;2.30;;;2.05;;
10643;SDS011;5370;50.132;8.626;2022-07-29T04:41:43;6.28;;;2.63;;
10643;SDS011;5370;50.132;8.626;2022-07-29T04:44:09;5.75;;;2.25;;
10643;SDS011;5370;50.132;8.626;2022-07-29T04:46:35;4.50;;;2.10;;
10643;SDS011;5370;50.132;8.626;2022-07-29T04:49:01;4.13;;;2.42;;
10643;SDS011;5370;50.132;8.626;2022-07-29T04:51:27;5.22;;;2.25;;
10643;SDS011;5370;50.132;8.626;2022-07-29T04:53:53;6.22;;;2.33;;
10643;SDS011;5370;50.132;8.626;2022-07-29T04:56:18;6.13;;;2.13;;
10643;SDS011;5370;50.132;8.626;2022-07-29T04:58:44;6.15;;;2.25;;
10643;SDS011;5370;50.132;8.626;2022-07-29T05:01:10;4.88;;;1.63;;
10643;SDS011;5370;50.132;8.626;2022-07-29T05:03:35;2.70;;;1.88;;
10643;SDS011;5370;50.132;8.626;2022-07-29T05:06:01;5.10;;;2.65;;
10643;SDS011;5370;50.132;8.626;2022-07-29T05:08:26;8.75;;;1.92;;
10643;SDS011;5370;50.132;8.626;2022-07-29T05:10:52;7.28;;;2.25;;
10643;SDS011;5370;50.132;8.626;2022-07-29T05:13:17;8.27;;;2.58;;
10643;SDS011;5370;50.132;8.626;2022-07-29T05:15:43;4.57;;;2.28;;
10643;SDS011;5370;50.132;8.626;2022-07-29T05:18:08;6.20;;;2.10;;
10643;SDS011;5370;50.132;8.626;2022-07-29T05:20:34;7.80;;;1.73;;
10643;SDS011;5370;50.132;8.626;2022-07-29T05:23:00;11.32;;;2.00;;
10643;SDS011;5370;50.132;8.626;2022-07-29T05:25:27;9.25;;;2.30;;
10643;SDS011;5370;50.132;8.626;2022-07-29T05:27:53;8.27;;;2.35;;
10643;SDS011;5370;50.132;8.626;2022-07-29T05:30:19;6.15;;;2.33;;
10643;SDS011;5370;50.132;8.626;2022-07-29T05:32:45;7.38;;;1.90;;
10643;SDS011;5370;50.132;8.626;2022-07-29T05:35:11;10.85;;;2.00;;
10643;SDS011;5370;50.132;8.626;2022-07-29T05:37:38;5.70;;;2.42;;
10643;SDS011;5370;50.132;8.626;2022-07-29T05:40:03;11.52;;;2.47;;
10643;SDS011;5370;50.132;8.626;2022-07-29T05:42:29;5.28;;;2.03;;
10643;SDS011;5370;50.132;8.626;2022-07-29T05:44:55;6.85;;;2.40;;
10643;SDS011;5370;50.132;8.626;2022-07-29T05:47:21;6.72;;;1.83;;
10643;SDS011;5370;50.132;8.626;2022-07-29T05:49:47;8.68;;;2.13;;
10643;SDS011;5370;50.132;8.626;2022-07-29T05:52:13;7.30;;;1.95;;
10643;SDS011;5370;50.132;8.626;2022-07-29T05:54:39;6.82;;;2.40;;
10643;SDS011;5370;50.132;8.626;2022-07-29T05:57:04;3.42;;;1.67;;
10643;SDS011;5370;50.132;8.626;2022-07-29T05:59:30;10.90;;;2.22;;
10643;SDS011;5370;50.132;8.626;2022-07-29T06:01:59;5.75;;;2.33;;
10643;SDS011;5370;50.132;8.626;2022-07-29T06:04:25;5.90;;;2.28;;
10643;SDS011;5370;50.132;8.626;2022-07-29T06:06:50;2.88;;;1.67;;
10643;SDS011;5370;50.132;8.626;2022-07-29T06:09:16;3.85;;;1.80;;
10643;SDS011;5370;50.132;8.626;2022-07-29T06:11:42;8.52;;;2.33;;
10643;SDS011;5370;50.132;8.626;2022-07-29T06:14:07;8.88;;;2.45;;
10643;SDS011;5370;50.132;8.626;2022-07-29T06:16:33;5.57;;;2.10;;
10643;SDS011;5370;50.132;8.626;2022-07-29T06:18:58;5.03;;;2.00;;
10643;SDS011;5370;50.132;8.626;2022-07-29T06:21:24;5.15;;;2.28;;
10643;SDS011;5370;50.132;8.626;2022-07-29T06:23:50;5.30;;;1.90;;
10643;SDS011;5370;50.132;8.626;2022-07-29T06:26:15;5.78;;;1.67;;
10643;SDS011;5370;50.132;8.626;2022-07-29T06:28:41;4.38;;;2.00;;
10643;SDS011;5370;50.132;8.626;2022-07-29T06:31:06;7.57;;;2.22;;
10643;SDS011;5370;50.132;8.626;2022-07-29T06:33:32;6.93;;;2.28;;
10643;SDS011;5370;50.132;8.626;2022-07-29T06:35:58;5.05;;;2.33;;
10643;SDS011;5370;50.132;8.626;2022-07-29T06:38:24;10.07;;;1.95;;
10643;SDS011;5370;50.132;8.626;2022-07-29T06:40:50;5.32;;;2.33;;
10643;SDS011;5370;50.132;8.626;2022-07-29T06:43:37;4.75;;;1.70;;
10643;SDS011;5370;50.132;8.626;2022-07-29T06:46:07;3.00;;;1.63;;
10643;SDS011;5370;50.132;8.626;2022-07-29T06:48:34;3.20;;;2.03;;
10643;SDS011;5370;50.132;8.626;2022-07-29T06:51:01;7.43;;;2.55;;
10643;SDS011;5370;50.132;8.626;2022-07-29T06:53:27;7.43;;;2.35;;
10643;SDS011;5370;50.132;8.626;2022-07-29T06:55:53;6.15;;;2.38;;
10643;SDS011;5370;50.132;8.626;2022-07-29T06:58:19;6.20;;;2.00;;
10643;SDS011;5370;50.132;8.626;2022-07-29T07:00:46;3.72;;;2.22;;
10643;SDS011;5370;50.132;8.626;2022-07-29T07:03:13;4.60;;;2.20;;
10643;SDS011;5370;50.132;8.626;2022-07-29T07:05:39;6.57;;;2.22;;
10643;SDS011;5370;50.132;8.626;2022-07-29T07:08:04;2.70;;;1.88;;
10643;SDS011;5370;50.132;8.626;2022-07-29T07:10:30;3.80;;;1.70;;
10643;SDS011;5370;50.132;8.626;2022-07-29T07:12:57;2.72;;;1.92;;
10643;SDS011;5370;50.132;8.626;2022-07-29T07:15:22;6.55;;;1.90;;
10643;SDS011;5370;50.132;8.626;2022-07-29T07:17:48;4.18;;;1.77;;
10643;SDS011;5370;50.132;8.626;2022-07-29T07:20:14;3.78;;;2.13;;
10643;SDS011;5370;50.132;8.626;2022-07-29T07:22:40;6.82;;;2.08;;
10643;SDS011;5370;50.132;8.626;2022-07-29T07:25:06;4.45;;;1.67;;
10643;SDS011;5370;50.132;8.626;2022-07-29T07:27:32;5.57;;;1.95;;
10643;SDS011;5370;50.132;8.626;2022-07-29T07:29:57;8.13;;;1.73;;
10643;SDS011;5370;50.132;8.626;2022-07-29T07:32:23;2.70;;;1.83;;
10643;SDS011;5370;50.132;8.626;2022-07-29T07:34:49;3.33;;;1.98;;
10643;SDS011;5370;50.132;8.626;2022-07-29T07:37:14;4.10;;;2.17;;
10643;SDS011;5370;50.132;8.626;2022-07-29T07:39:40;3.53;;;1.90;;
10643;SDS011;5370;50.132;8.626;2022-07-29T07:42:06;5.80;;;1.83;;
10643;SDS011;5370;50.132;8.626;2022-07-29T07:44:32;5.75;;;1.90;;
10643;SDS011;5370;50.132;8.626;2022-07-29T07:46:57;5.45;;;1.95;;
10643;SDS011;5370;50.132;8.626;2022-07-29T07:49:23;4.45;;;2.20;;
10643;SDS011;5370;50.132;8.626;2022-07-29T07:51:49;3.25;;;2.03;;
10643;SDS011;5370;50.132;8.626;2022-07-29T07:54:14;4.22;;;1.90;;
10643;SDS011;5370;50.132;8.626;2022-07-29T07:56:40;5.40;;;2.10;;
10643;SDS011;5370;50.132;8.626;2022-07-29T07:59:05;8.68;;;2.15;;
10643;SDS011;5370;50.132;8.626;2022-07-29T08:01:31;3.55;;;1.88;;
10643;SDS011;5370;50.132;8.626;2022-07-29T08:03:56;7.68;;;1.80;;
10643;SDS011;5370;50.132;8.626;2022-07-29T08:06:22;5.07;;;1.75;;
10643;SDS011;5370;50.132;8.626;2022-07-29T08:08:49;3.00;;;2.10;;
10643;SDS011;5370;50.132;8.626;2022-07-29T08:11:15;4.20;;;1.80;;
10643;SDS011;5370;50.132;8.626;2022-07-29T08:13:42;4.32;;;2.05;;
10643;SDS011;5370;50.132;8.626;2022-07-29T08:16:08;5.38;;;1.98;;
10643;SDS011;5370;50.132;8.626;2022-07-29T08:18:37;3.38;;;1.70;;
10643;SDS011;5370;50.132;8.626;2022-07-29T08:21:04;3.45;;;1.90;;
10643;SDS011;5370;50.132;8.626;2022-07-29T08:23:29;4.05;;;2.15;;
10643;SDS011;5370;50.132;8.626;2022-07-29T08:26:03;4.00;;;2.10;;
10643;SDS011;5370;50.132;8.626;2022-07-29T08:28:30;5.38;;;1.80;;
10643;SDS011;5370;50.132;8.626;2022-07-29T08:30:55;7.47;;;2.10;;
10643;SDS011;5370;50.132;8.626;2022-07-29T08:33:21;2.55;;;1.90;;
10643;SDS011;5370;50.132;8.626;2022-07-29T08:35:46;5.78;;;2.33;;
10643;SDS011;5370;50.132;8.626;2022-07-29T08:38:12;4.57;;;1.98;;
10643;SDS011;5370;50.132;8.626;2022-07-29T08:40:38;3.63;;;1.90;;
10643;SDS011;5370;50.132;8.626;2022-07-29T08:43:05;4.18;;;2.15;;
10643;SDS011;5370;50.132;8.626;2022-07-29T08:45:40;4.82;;;2.28;;
10643;SDS011;5370;50.132;8.626;2022-07-29T08:48:08;3.83;;;2.10;;
10643;SDS011;5370;50.132;8.626;2022-07-29T08:50:35;3.75;;;1.95;;
10643;SDS011;5370;50.132;8.626;2022-07-29T08:53:01;6.70;;;2.67;;
10643;SDS011;5370;50.132;8.626;2022-07-29T08:55:28;3.67;;;1.95;;
10643;SDS011;5370;50.132;8.626;2022-07-29T08:57:54;2.75;;;1.90;;
10643;SDS011;5370;50.132;8.626;2022-07-29T09:00:20;3.45;;;1.83;;
10643;SDS011;5370;50.132;8.626;2022-07-29T09:02:47;5.82;;;2.15;;
10643;SDS011;5370;50.132;8.626;2022-07-29T09:05:20;6.72;;;2.22;;
10643;SDS011;5370;50.132;8.626;2022-07-29T09:07:45;6.60;;;2.15;;
10643;SDS011;5370;50.132;8.626;2022-07-29T09:10:12;4.57;;;2.47;;
10643;SDS011;5370;50.132;8.626;2022-07-29T09:12:38;2.92;;;2.30;;
10643;SDS011;5370;50.132;8.626;2022-07-29T09:15:04;5.07;;;2.63;;
10643;SDS011;5370;50.132;8.626;2022-07-29T09:17:40;6.13;;;2.30;;
10643;SDS011;5370;50.132;8.626;2022-07-29T09:20:14;4.13;;;2.25;;
10643;SDS011;5370;50.132;8.626;2022-07-29T09:22:41;4.32;;;2.20;;
10643;SDS011;5370;50.132;8.626;2022-07-29T09:25:07;3.22;;;2.30;;
10643;SDS011;5370;50.132;8.626;2022-07-29T09:27:33;8.32;;;2.45;;
10643;SDS011;5370;50.132;8.626;2022-07-29T09:30:00;5.47;;;2.40;;
10643;SDS011;5370;50.132;8.626;2022-07-29T09:32:28;5.32;;;2.40;;
10643;SDS011;5370;50.132;8.626;2022-07-29T09:35:13;5.80;;;1.92;;
10643;SDS011;5370;50.132;8.626;2022-07-29T09:37:43;3.75;;;2.38;;
10643;SDS011;5370;50.132;8.626;2022-07-29T09:40:14;4.53;;;2.30;;
10643;SDS011;5370;50.132;8.626;2022-07-29T09:42:41;4.30;;;2.40;;
10643;SDS011;5370;50.132;8.626;2022-07-29T09:45:06;5.50;;;2.20;;
10643;SDS011;5370;50.132;8.626;2022-07-29T09:47:43;5.53;;;2.33;;
10643;SDS011;5370;50.132;8.626;2022-07-29T09:50:10;7.55;;;2.80;;
10643;SDS011;5370;50.132;8.626;2022-07-29T09:52:44;5.25;;;2.45;;
10643;SDS011;5370;50.132;8.626;2022-07-29T09:55:14;5.78;;;2.53;;
10643;SDS011;5370;50.132;8.626;2022-07-29T09:57:40;7.45;;;2.25;;
10643;SDS011;5370;50.132;8.626;2022-07-29T10:00:07;5.70;;;1.90;;
10643;SDS011;5370;50.132;8.626;2022-07-29T10:02:35;2.78;;;2.33;;
10643;SDS011;5370;50.132;8.626;2022-07-29T10:05:03;5.05;;;2.22;;
10643;SDS011;5370;50.132;8.626;2022-07-29T10:07:47;3.97;;;2.17;;
10643;SDS011;5370;50.132;8.626;2022-07-29T10:10:29;4.78;;;2.47;;
10643;SDS011;5370;50.132;8.626;2022-07-29T10:13:01;7.38;;;3.05;;
10643;SDS011;5370;50.132;8.626;2022-07-29T10:15:32;2.25;;;1.98;;
10643;SDS011;5370;50.132;8.626;2022-07-29T10:18:02;5.75;;;2.83;;
10643;SDS011;5370;50.132;8.626;2022-07-29T10:20:28;3.75;;;2.25;;
10643;SDS011;5370;50.132;8.626;2022-07-29T10:22:53;6.05;;;2.20;;
10643;SDS011;5370;50.132;8.626;2022-07-29T10:25:21;5.97;;;2.35;;
10643;SDS011;5370;50.132;8.626;2022-07-29T10:27:47;5.38;;;2.22;;
10643;SDS011;5370;50.132;8.626;2022-07-29T10:30:14;2.90;;;1.90;;
10643;SDS011;5370;50.132;8.626;2022-07-29T10:41:34;3.88;;;2.45;;
10643;SDS011;5370;50.132;8.626;2022-07-29T10:46:28;3.60;;;2.13;;
10643;SDS011;5370;50.132;8.626;2022-07-29T10:49:12;8.43;;;2.38;;
10643;SDS011;5370;50.132;8.626;2022-07-29T10:51:59;6.10;;;2.15;;
10643;SDS011;5370;50.132;8.626;2022-07-29T10:57:13;4.72;;;2.90;;
10643;SDS011;5370;50.132;8.626;2022-07-29T10:59:50;5.45;;;2.60;;
10643;SDS011;5370;50.132;8.626;2022-07-29T11:07:24;4.30;;;3.03;;
10643;SDS011;5370;50.132;8.626;2022-07-29T11:15:04;7.10;;;2.53;;
10643;SDS011;5370;50.132;8.626;2022-07-29T11:20:44;4.18;;;2.42;;
10643;SDS011;5370;50.132;8.626;2022-07-29T11:39:32;2.58;;;2.10;;
10643;SDS011;5370;50.132;8.626;2022-07-29T11:44:55;3.22;;;2.50;;
10643;SDS011;5370;50.132;8.626;2022-07-29T11:47:23;4.15;;;2.75;;
10643;SDS011;5370;50.132;8.626;2022-07-29T11:49:50;3.47;;;2.17;;
10643;SDS011;5370;50.132;8.626;2022-07-29T11:52:17;3.75;;;2.40;;
10643;SDS011;5370;50.132;8.626;2022-07-29T11:54:43;5.88;;;2.70;;
10643;SDS011;5370;50.132;8.626;2022-07-29T11:57:12;4.82;;;2.47;;
10643;SDS011;5370;50.132;8.626;2022-07-29T11:59:39;3.20;;;2.20;;
10643;SDS011;5370;50.132;8.626;2022-07-29T12:02:06;5.70;;;2.30;;
10643;SDS011;5370;50.132;8.626;2022-07-29T12:04:48;5.90;;;2.50;;
10643;SDS011;5370;50.132;8.626;2022-07-29T12:07:18;5.53;;;2.17;;
10643;SDS011;5370;50.132;8.626;2022-07-29T12:09:54;4.55;;;2.40;;
10643;SDS011;5370;50.132;8.626;2022-07-29T12:12:20;6.28;;;2.83;;
10643;SDS011;5370;50.132;8.626;2022-07-29T12:14:46;5.93;;;2.55;;
10643;SDS011;5370;50.132;8.626;2022-07-29T12:20:10;4.70;;;2.50;;
10643;SDS011;5370;50.132;8.626;2022-07-29T12:22:38;5.63;;;2.63;;
10643;SDS011;5370;50.132;8.626;2022-07-29T12:25:07;4.45;;;2.40;;
10643;SDS011;5370;50.132;8.626;2022-07-29T12:27:34;3.47;;;2.40;;
10643;SDS011;5370;50.132;8.626;2022-07-29T12:30:06;3.97;;;2.20;;
10643;SDS011;5370;50.132;8.626;2022-07-29T12:32:44;5.72;;;2.40;;
10643;SDS011;5370;50.132;8.626;2022-07-29T12:35:12;6.75;;;2.50;;
10643;SDS011;5370;50.132;8.626;2022-07-29T12:37:40;6.75;;;2.75;;
10643;SDS011;5370;50.132;8.626;2022-07-29T12:40:06;4.30;;;2.75;;
10643;SDS011;5370;50.132;8.626;2022-07-29T12:42:33;3.92;;;2.60;;
10643;SDS011;5370;50.132;8.626;2022-07-29T12:44:59;5.15;;;2.35;;
10643;SDS011;5370;50.132;8.626;2022-07-29T12:47:26;3.70;;;2.63;;
10643;SDS011;5370;50.132;8.626;2022-07-29T12:52:53;5.15;;;2.15;;
10643;SDS011;5370;50.132;8.626;2022-07-29T12:55:42;6.70;;;3.17;;
10643;SDS011;5370;50.132;8.626;2022-07-29T12:58:10;4.88;;;2.35;;
10643;SDS011;5370;50.132;8.626;2022-07-29T13:00:35;3.58;;;2.95;;
10643;SDS011;5370;50.132;8.626;2022-07-29T13:03:01;3.38;;;2.25;;
10643;SDS011;5370;50.132;8.626;2022-07-29T13:05:48;3.97;;;2.28;;
10643;SDS011;5370;50.132;8.626;2022-07-29T13:08:13;6.43;;;2.25;;
10643;SDS011;5370;50.132;8.626;2022-07-29T13:10:40;7.93;;;2.30;;
10643;SDS011;5370;50.132;8.626;2022-07-29T13:15:33;2.65;;;2.00;;
10643;SDS011;5370;50.132;8.626;2022-07-29T13:17:59;6.85;;;2.47;;
10643;SDS011;5370;50.132;8.626;2022-07-29T13:20:25;3.42;;;2.20;;
10643;SDS011;5370;50.132;8.626;2022-07-29T13:22:54;6.45;;;2.65;;
10643;SDS011;5370;50.132;8.626;2022-07-29T13:25:25;2.45;;;2.33;;
10643;SDS011;5370;50.132;8.626;2022-07-29T13:27:52;4.55;;;2.35;;
10643;SDS011;5370;50.132;8.626;2022-07-29T13:30:19;4.82;;;2.92;;
10643;SDS011;5370;50.132;8.626;2022-07-29T13:32:45;6.93;;;2.67;;
10643;SDS011;5370;50.132;8.626;2022-07-29T13:35:11;6.07;;;2.75;;
10643;SDS011;5370;50.132;8.626;2022-07-29T13:37:38;5.80;;;2.58;;
10643;SDS011;5370;50.132;8.626;2022-07-29T13:40:04;5.25;;;2.97;;
10643;SDS011;5370;50.132;8.626;2022-07-29T13:42:32;6.57;;;2.85;;
10643;SDS011;5370;50.132;8.626;2022-07-29T13:44:58;5.88;;;3.10;;
10643;SDS011;5370;50.132;8.626;2022-07-29T13:47:24;3.03;;;2.15;;
10643;SDS011;5370;50.132;8.626;2022-07-29T13:49:50;3.40;;;2.42;;
10643;SDS011;5370;50.132;8.626;2022-07-29T13:52:15;4.88;;;2.22;;
10643;SDS011;5370;50.132;8.626;2022-07-29T13:54:42;4.70;;;2.42;;
10643;SDS011;5370;50.132;8.626;2022-07-29T13:57:08;4.65;;;2.58;;
10643;SDS011;5370;50.132;8.626;2022-07-29T13:59:38;3.55;;;2.47;;
10643;SDS011;5370;50.132;8.626;2022-07-29T14:02:04;3.00;;;2.08;;
10643;SDS011;5370;50.132;8.626;2022-07-29T14:04:30;4.47;;;2.67;;
10643;SDS011;5370;50.132;8.626;2022-07-29T14:06:56;3.47;;;2.72;;
10643;SDS011;5370;50.132;8.626;2022-07-29T14:09:21;4.13;;;2.78;;
10643;SDS011;5370;50.132;8.626;2022-07-29T14:11:47;5.60;;;2.55;;
10643;SDS011;5370;50.132;8.626;2022-07-29T14:14:14;3.50;;;2.17;;
10643;SDS011;5370;50.132;8.626;2022-07-29T14:16:40;4.82;;;2.53;;
10643;SDS011;5370;50.132;8.626;2022-07-29T14:19:05;2.40;;;2.17;;
10643;SDS011;5370;50.132;8.626;2022-07-29T14:21:32;5.32;;;2.60;;
10643;SDS011;5370;50.132;8.626;2022-07-29T14:23:57;6.43;;;2.60;;
10643;SDS011;5370;50.132;8.626;2022-07-29T14:26:23;5.63;;;2.30;;
10643;SDS011;5370;50.132;8.626;2022-07-29T14:28:48;4.40;;;2.60;;
10643;SDS011;5370;50.132;8.626;2022-07-29T14:31:14;5.90;;;2.25;;
10643;SDS011;5370;50.132;8.626;2022-07-29T14:33:40;10.48;;;2.90;;
10643;SDS011;5370;50.132;8.626;2022-07-29T14:36:06;13.00;;;2.78;;
10643;SDS011;5370;50.132;8.626;2022-07-29T14:38:32;8.13;;;3.00;;
10643;SDS011;5370;50.132;8.626;2022-07-29T14:40:58;8.05;;;2.63;;
10643;SDS011;5370;50.132;8.626;2022-07-29T14:43:23;4.60;;;2.42;;
10643;SDS011;5370;50.132;8.626;2022-07-29T14:45:49;3.50;;;2.60;;
10643;SDS011;5370;50.132;8.626;2022-07-29T14:48:14;5.05;;;2.35;;
10643;SDS011;5370;50.132;8.626;2022-07-29T14:50:40;3.70;;;2.60;;
10643;SDS011;5370;50.132;8.626;2022-07-29T14:53:06;5.45;;;2.40;;
10643;SDS011;5370;50.132;8.626;2022-07-29T14:55:31;6.28;;;2.20;;
10643;SDS011;5370;50.132;8.626;2022-07-29T14:57:57;3.67;;;2.38;;
10643;SDS011;5370;50.132;8.626;2022-07-29T15:00:24;7.50;;;3.00;;
10643;SDS011;5370;50.132;8.626;2022-07-29T15:02:50;6.05;;;2.45;;
10643;SDS011;5370;50.132;8.626;2022-07-29T15:05:16;4.05;;;2.45;;
10643;SDS011;5370;50.132;8.626;2022-07-29T15:07:41;3.60;;;1.95;;
10643;SDS011;5370;50.132;8.626;2022-07-29T15:10:08;4.45;;;2.28;;
10643;SDS011;5370;50.132;8.626;2022-07-29T15:12:33;2.42;;;1.70;;
10643;SDS011;5370;50.132;8.626;2022-07-29T15:14:59;3.38;;;1.83;;
10643;SDS011;5370;50.132;8.626;2022-07-29T15:17:25;2.53;;;1.98;;
10643;SDS011;5370;50.132;8.626;2022-07-29T15:19:50;1.73;;;1.55;;
10643;SDS011;5370;50.132;8.626;2022-07-29T15:22:16;3.92;;;1.50;;
10643;SDS011;5370;50.132;8.626;2022-07-29T15:24:42;2.30;;;1.90;;
10643;SDS011;5370;50.132;8.626;2022-07-29T15:27:07;2.45;;;1.60;;
10643;SDS011;5370;50.132;8.626;2022-07-29T15:29:38;3.67;;;1.63;;
10643;SDS011;5370;50.132;8.626;2022-07-29T15:32:05;2.13;;;1.92;;
10643;SDS011;5370;50.132;8.626;2022-07-29T15:34:31;1.85;;;1.60;;
10643;SDS011;5370;50.132;8.626;2022-07-29T15:36:56;4.22;;;1.70;;
10643;SDS011;5370;50.132;8.626;2022-07-29T15:39:22;2.00;;;1.80;;
10643;SDS011;5370;50.132;8.626;2022-07-29T15:41:47;1.75;;;1.30;;
10643;SDS011;5370;50.132;8.626;2022-07-29T15:44:14;1.73;;;1.40;;
10643;SDS011;5370;50.132;8.626;2022-07-29T15:46:39;4.10;;;1.70;;
10643;SDS011;5370;50.132;8.626;2022-07-29T15:49:24;4.47;;;1.25;;
10643;SDS011;5370;50.132;8.626;2022-07-29T15:51:55;2.58;;;1.33;;
10643;SDS011;5370;50.132;8.626;2022-07-29T15:54:24;1.65;;;1.42;;
10643;SDS011;5370;50.132;8.626;2022-07-29T15:56:50;5.13;;;1.60;;
10643;SDS011;5370;50.132;8.626;2022-07-29T15:59:16;1.45;;;1.25;;
10643;SDS011;5370;50.132;8.626;2022-07-29T16:01:42;1.60;;;1.27;;
10643;SDS011;5370;50.132;8.626;2022-07-29T16:04:07;2.15;;;1.15;;
10643;SDS011;5370;50.132;8.626;2022-07-29T16:06:33;2.58;;;1.13;;
10643;SDS011;5370;50.132;8.626;2022-07-29T16:08:58;4.40;;;1.52;;